Time;durP1;ratioP1;P1;durP2;ratioP2;P2;SDS_P1;SDS_P2;PMS_P1;PMS_P2;Temp;Humidity;BMP_temperature;BMP_pressure;BME280_temperature;BME280_humidity;BME280_pressure;Samples;Min_cycle;Max_cycle;Signal;HPM_P1;HPM_P2
2023/05/24 00:03:03;;;;;;;6.80;6.10;;;;;;;21.71;43.42;94858.75;6094041;28;109095;-65
2023/05/24 00:06:07;;;;;;;6.67;5.03;;;;;;;21.71;43.53;94860.63;6094433;28;110404;-69
2023/05/24 00:09:12;;;;;;;6.00;5.60;;;;;;;21.70;43.97;94861.72;6089777;28;110207;-70
2023/05/24 00:12:15;;;;;;;7.90;5.77;;;;;;;21.71;43.33;94857.94;6089226;28;109089;-65
2023/05/24 00:15:18;;;;;;;5.37;4.97;;;;;;;21.70;43.27;94857.16;6093961;28;110019;-67
2023/05/24 00:18:22;;;;;;;6.20;5.60;;;;;;;21.69;43.59;94863.59;6091148;28;109836;-68
2023/05/24 00:21:25;;;;;;;6.37;5.77;;;;;;;21.71;43.35;94868.59;6082382;28;110269;-70
2023/05/24 00:24:30;;;;;;;6.10;5.50;;;;;;;21.68;43.51;94848.72;6098495;28;109678;-70
2023/05/24 00:27:33;;;;;;;6.20;5.70;;;;;;;21.70;43.05;94859.84;6091857;28;109982;-67
2023/05/24 00:30:36;;;;;;;5.80;5.20;;;;;;;21.68;42.96;94861.25;6093838;28;109340;-67
2023/05/24 00:33:39;;;;;;;6.03;5.50;;;;;;;21.70;43.33;94865.16;6085436;28;111977;-69
2023/05/24 00:36:43;;;;;;;5.53;5.10;;;;;;;21.68;43.35;94864.69;6091402;28;109579;-68
2023/05/24 00:39:47;;;;;;;6.33;5.83;;;;;;;21.67;43.05;94860.41;6090083;28;111335;-66
2023/05/24 00:42:51;;;;;;;6.37;5.87;;;;;;;21.68;43.40;94858.56;6092712;28;109418;-66
2023/05/24 00:46:16;;;;;;;7.07;5.13;;;;;;;21.68;42.68;94850.59;6081298;28;109538;-65
2023/05/24 00:49:20;;;;;;;6.50;6.00;;;;;;;21.67;43.15;94848.97;6089403;28;109097;-69
2023/05/24 00:52:23;;;;;;;6.27;5.73;;;;;;;21.68;43.39;94862.03;6096767;28;109656;-70
2023/05/24 00:55:29;;;;;;;5.80;5.30;;;;;;;21.65;42.66;94856.50;6081436;28;110233;-68
2023/05/24 00:58:32;;;;;;;5.23;4.83;;;;;;;21.64;42.22;94857.59;6094699;28;109180;-66
2023/05/24 01:01:36;;;;;;;5.80;5.40;;;;;;;21.65;43.31;94859.16;6090838;28;109061;-68
2023/05/24 01:04:39;;;;;;;7.30;4.80;;;;;;;21.65;43.29;94853.84;6095870;28;110337;-70
2023/05/24 01:07:51;;;;;;;6.20;5.50;;;;;;;21.64;43.06;94855.72;6080834;28;110884;-71
2023/05/24 01:11:01;;;;;;;8.23;5.13;;;;;;;21.65;42.78;94854.63;6093807;28;111135;-70
2023/05/24 01:14:17;;;;;;;7.77;5.90;;;;;;;21.63;43.16;94856.81;6094454;28;111178;-70
2023/05/24 01:17:25;;;;;;;7.53;5.57;;;;;;;21.65;42.87;94859.94;6088640;28;110008;-69
2023/05/24 01:20:30;;;;;;;6.50;5.60;;;;;;;21.67;43.59;94862.31;6089426;28;110148;-70
2023/05/24 01:23:44;;;;;;;7.83;5.40;;;;;;;21.69;43.77;94865.47;6095193;28;109627;-71
2023/05/24 01:27:09;;;;;;;6.77;5.67;;;;;;;21.71;43.85;94868.59;6091067;28;110510;-70
2023/05/24 01:30:14;;;;;;;6.53;5.23;;;;;;;21.71;43.28;94874.72;6077050;28;110044;-70
2023/05/24 01:33:17;;;;;;;7.07;5.80;;;;;;;21.71;43.70;94874.72;6088322;28;109646;-70
2023/05/24 01:36:21;;;;;;;7.33;5.30;;;;;;;21.71;44.05;94880.03;6093726;28;109105;-71
2023/05/24 01:39:27;;;;;;;5.67;5.07;;;;;;;21.71;43.28;94866.72;6089587;28;109743;-71
2023/05/24 01:42:44;;;;;;;6.50;5.77;;;;;;;21.71;43.25;94872.06;6080678;28;110686;-71
2023/05/24 01:45:58;;;;;;;7.23;5.37;;;;;;;21.71;44.07;94869.38;6093165;28;110507;-70
2023/05/24 01:49:10;;;;;;;6.20;5.20;;;;;;;21.73;43.57;94874.41;6096677;28;109822;-71
2023/05/24 01:52:19;;;;;;;6.17;5.57;;;;;;;21.72;43.41;94870.19;6084965;28;111160;-71
2023/05/24 01:55:23;;;;;;;5.47;4.90;;;;;;;21.71;44.04;94876.59;6091564;28;109336;-71
2023/05/24 01:58:29;;;;;;;5.67;5.17;;;;;;;21.71;44.02;94868.59;6092754;28;110160;-71
2023/05/24 02:01:34;;;;;;;7.47;5.13;;;;;;;21.68;43.91;94863.91;6094357;28;110670;-70
2023/05/24 02:04:38;;;;;;;16.53;6.00;;;;;;;21.65;43.38;94883.13;6082009;28;112341;-70
2023/05/24 02:07:41;;;;;;;17.70;6.20;;;;;;;21.64;43.25;94876.22;6094421;28;109972;-70
2023/05/24 02:10:44;;;;;;;12.57;6.27;;;;;;;21.61;43.19;94863.53;6089870;28;110532;-70
2023/05/24 02:13:49;;;;;;;10.43;5.70;;;;;;;21.58;43.10;94854.28;6089549;28;110305;-70
2023/05/24 02:16:57;;;;;;;6.20;5.40;;;;;;;21.61;42.75;94860.88;6080994;28;110718;-70
2023/05/24 02:20:01;;;;;;;6.50;5.63;;;;;;;21.61;42.96;94858.22;6093781;28;110067;-70
2023/05/24 02:23:05;;;;;;;6.03;5.47;;;;;;;21.59;43.25;94857.75;6095104;28;110114;-73
2023/05/24 02:26:10;;;;;;;6.13;5.37;;;;;;;21.58;42.72;94858.84;6089067;28;109752;-73
2023/05/24 02:29:15;;;;;;;6.23;5.63;;;;;;;21.57;43.46;94860.72;6090259;28;110460;-75
2023/05/24 02:32:18;;;;;;;6.50;5.37;;;;;;;21.56;43.15;94853.03;6096140;28;109880;-71
2023/05/24 02:35:21;;;;;;;7.40;5.90;;;;;;;21.55;43.43;94848.78;6090718;28;109058;-70
2023/05/24 02:38:25;;;;;;;8.67;6.17;;;;;;;21.54;43.10;94852.56;6078018;28;109389;-75
2023/05/24 02:41:28;;;;;;;6.40;5.80;;;;;;;21.54;42.80;94853.34;6093501;28;109185;-74
2023/05/24 02:44:33;;;;;;;5.93;5.30;;;;;;;21.52;43.39;94847.53;6091484;28;110019;-74
2023/05/24 02:47:36;;;;;;;6.27;5.53;;;;;;;21.52;43.23;94850.97;6091586;28;109824;-72
2023/05/24 02:50:39;;;;;;;6.83;6.00;;;;;;;21.51;43.04;94845.97;6080105;28;110659;-74
2023/05/24 02:53:44;;;;;;;7.57;5.53;;;;;;;21.51;42.56;94854.75;6096786;28;109184;-75
2023/05/24 02:56:48;;;;;;;6.17;5.57;;;;;;;21.49;42.72;94854.22;6090734;28;110280;-74
2023/05/24 02:59:53;;;;;;;6.50;5.90;;;;;;;21.50;43.00;94853.13;6084431;28;111038;-74
2023/05/24 03:02:59;;;;;;;10.60;5.73;;;;;;;21.47;43.28;94861.75;6086078;28;112430;-76
2023/05/24 03:06:02;;;;;;;12.83;6.40;;;;;;;21.37;43.45;94856.69;6091182;28;110052;-75
2023/05/24 03:09:06;;;;;;;7.13;5.80;;;;;;;21.43;42.95;94860.00;6092791;28;108934;-75
2023/05/24 03:12:10;;;;;;;12.03;5.67;;;;;;;21.44;42.46;94858.91;6079466;28;110671;-74
2023/05/24 03:15:14;;;;;;;15.03;6.17;;;;;;;21.29;42.36;94869.94;6091927;28;109426;-65
2023/05/24 03:18:17;;;;;;;6.37;5.50;;;;;;;21.16;42.16;94874.25;6091744;28;110149;-67
2023/05/24 03:21:22;;;;;;;27.90;8.00;;;;;;;21.13;42.55;94875.63;6090352;28;110774;-66
2023/05/24 03:24:26;;;;;;;18.60;6.50;;;;;;;21.05;42.03;94872.94;6079302;28;111012;-65
2023/05/24 03:27:29;;;;;;;12.90;6.30;;;;;;;21.03;42.16;94869.75;6091699;28;110065;-67
2023/05/24 03:30:34;;;;;;;8.20;6.50;;;;;;;20.98;42.29;94873.31;6087037;28;110039;-63
2023/05/24 03:33:37;;;;;;;30.00;7.60;;;;;;;20.93;42.50;94882.22;6092670;28;110729;-63
2023/05/24 03:36:40;;;;;;;16.20;6.63;;;;;;;20.97;42.32;94886.91;6083500;28;111165;-63
2023/05/24 03:39:44;;;;;;;12.57;9.40;;;;;;;20.93;42.25;94894.72;6092977;28;109257;-63
2023/05/24 03:42:47;;;;;;;10.80;8.00;;;;;;;20.87;42.01;94893.28;6091305;28;109119;-63
2023/05/24 03:45:51;;;;;;;9.47;6.60;;;;;;;20.85;42.25;94892.78;6081295;28;113296;-63
2023/05/24 03:48:54;;;;;;;8.27;7.10;;;;;;;20.83;42.10;94887.75;6087504;28;109577;-63
2023/05/24 03:51:57;;;;;;;7.50;6.67;;;;;;;20.78;42.16;94890.53;6089011;28;109583;-63
2023/05/24 03:55:01;;;;;;;12.27;8.80;;;;;;;20.76;42.66;94887.38;6101149;28;109171;-63
2023/05/24 03:58:04;;;;;;;8.83;7.87;;;;;;;20.80;42.43;94893.66;6077647;28;109381;-63
2023/05/24 04:01:08;;;;;;;11.27;10.40;;;;;;;20.78;42.64;94890.53;6089954;28;109476;-63
2023/05/24 04:04:18;;;;;;;15.03;13.53;;;;;;;20.79;42.71;94897.41;6089599;28;109139;-63
2023/05/24 04:07:23;;;;;;;17.87;16.37;;;;;;;20.76;42.66;94892.72;6094385;28;112203;-63
2023/05/24 04:10:26;;;;;;;22.30;14.53;;;;;;;20.77;43.20;94904.13;6087017;28;109525;-64
2023/05/24 04:13:29;;;;;;;12.87;11.47;;;;;;;20.76;42.89;94897.25;6089605;28;109628;-64
2023/05/24 04:16:34;;;;;;;46.10;13.60;;;;;;;20.69;42.91;94899.53;6096636;28;109399;-65
2023/05/24 04:19:37;;;;;;;19.93;10.33;;;;;;;20.67;43.28;94899.03;6087800;28;109908;-64
2023/05/24 04:22:40;;;;;;;13.07;10.03;;;;;;;20.64;43.04;94900.41;6087147;28;109092;-64
2023/05/24 04:25:44;;;;;;;26.87;11.20;;;;;;;20.68;43.49;94901.41;6098635;28;110391;-71
2023/05/24 04:28:47;;;;;;;26.23;11.73;;;;;;;20.86;43.68;94905.00;6094921;28;109329;-73
2023/05/24 04:31:52;;;;;;;29.70;13.40;;;;;;;20.98;44.42;94905.22;6085379;28;109847;-70
2023/05/24 04:34:56;;;;;;;31.10;11.50;;;;;;;21.03;44.65;94905.13;6095123;28;109423;-73
2023/05/24 04:37:59;;;;;;;26.73;14.70;;;;;;;21.01;44.57;94909.97;6096194;28;109486;-70
2023/05/24 04:41:02;;;;;;;16.80;9.27;;;;;;;20.68;45.05;94909.38;6094432;28;109349;-67
2023/05/24 04:44:06;;;;;;;24.50;11.33;;;;;;;20.78;44.79;94911.81;6082816;28;109113;-67
2023/05/24 04:47:11;;;;;;;39.30;11.80;;;;;;;20.35;46.00;94913.28;6093878;28;111217;-69
2023/05/24 04:50:14;;;;;;;15.60;13.30;;;;;;;20.67;45.43;94926.44;6094692;28;109433;-66
2023/05/24 04:53:18;;;;;;;16.50;12.97;;;;;;;20.49;45.74;94928.09;6092526;28;109137;-66
2023/05/24 04:56:21;;;;;;;24.07;11.07;;;;;;;20.25;46.32;94933.66;6093937;28;109275;-66
2023/05/24 04:59:25;;;;;;;15.30;8.50;;;;;;;19.87;47.80;94926.94;6096609;28;109798;-68
2023/05/24 05:02:29;;;;;;;10.90;8.30;;;;;;;19.81;47.54;94938.72;6091484;28;109791;-68
2023/05/24 05:05:33;;;;;;;13.33;8.83;;;;;;;19.73;47.89;94946.28;6086180;28;110010;-62
2023/05/24 05:08:36;;;;;;;11.63;8.67;;;;;;;19.73;47.62;94935.66;6090849;28;109725;-69
2023/05/24 05:11:40;;;;;;;21.33;8.40;;;;;;;20.36;47.04;94936.13;6091210;28;110764;-67
2023/05/24 05:14:44;;;;;;;34.60;9.90;;;;;;;20.64;46.44;94940.28;6093359;28;109459;-68
2023/05/24 05:17:49;;;;;;;44.87;10.97;;;;;;;20.80;47.24;94938.88;6082633;28;109531;-71
2023/05/24 05:20:52;;;;;;;41.93;10.80;;;;;;;20.96;47.28;94942.00;6092965;28;110671;-71
2023/05/24 05:23:55;;;;;;;36.87;11.03;;;;;;;21.05;46.97;94934.13;6092836;28;109204;-68
2023/05/24 05:26:59;;;;;;;31.17;12.40;;;;;;;21.09;46.63;94938.53;6097100;28;110149;-71
2023/05/24 05:30:02;;;;;;;45.47;12.57;;;;;;;21.15;46.99;94933.88;6083527;28;110509;-66
2023/05/24 05:33:07;;;;;;;40.23;11.23;;;;;;;21.21;46.70;94940.66;6092757;28;109001;-68
2023/05/24 05:36:10;;;;;;;36.77;10.47;;;;;;;21.30;47.53;94938.84;6087751;28;110014;-69
2023/05/24 05:39:13;;;;;;;32.77;9.60;;;;;;;21.37;47.56;94933.91;6092078;28;110521;-69
2023/05/24 05:42:16;;;;;;;28.50;9.77;;;;;;;21.46;48.13;94936.59;6091436;28;110505;-68
2023/05/24 05:45:20;;;;;;;34.13;10.13;;;;;;;21.51;47.80;94942.59;6094295;28;111106;-68
2023/05/24 05:48:25;;;;;;;37.27;13.00;;;;;;;21.57;47.98;94937.94;6093885;28;109947;-68
2023/05/24 05:51:29;;;;;;;25.60;9.27;;;;;;;21.62;47.22;94942.31;6080229;28;111078;-67
2023/05/24 05:54:32;;;;;;;31.00;10.67;;;;;;;21.67;46.95;94937.66;6098259;28;109459;-66
2023/05/24 05:57:35;;;;;;;35.93;11.20;;;;;;;21.74;47.15;94926.56;6103144;28;112203;-69
2023/05/24 06:00:38;;;;;;;24.03;10.60;;;;;;;21.80;47.86;94931.47;6098875;28;109194;-68
2023/05/24 06:03:43;;;;;;;24.80;10.20;;;;;;;21.89;47.62;94939.53;6079509;28;109440;-69
2023/05/24 06:06:48;;;;;;;30.93;10.40;;;;;;;21.99;47.70;94946.47;6093040;28;109152;-67
2023/05/24 06:09:51;;;;;;;21.53;9.27;;;;;;;22.09;47.68;94956.84;6091807;28;111934;-70
2023/05/24 06:12:55;;;;;;;35.73;9.77;;;;;;;22.17;47.85;94952.63;6089640;28;110218;-71
2023/05/24 06:15:59;;;;;;;23.60;9.70;;;;;;;22.22;48.11;94950.66;6082212;28;110333;-69
2023/05/24 06:19:03;;;;;;;18.60;9.73;;;;;;;22.29;48.21;94947.53;6089190;28;112889;-71
2023/05/24 06:22:08;;;;;;;20.60;8.97;;;;;;;22.33;47.64;94951.13;6101429;28;109054;-67
2023/05/24 06:25:14;;;;;;;28.90;11.20;;;;;;;22.37;47.99;94947.56;6084586;28;112390;-69
2023/05/24 06:28:17;;;;;;;19.63;10.60;;;;;;;22.42;47.99;94947.41;6088833;28;109435;-67
2023/05/24 06:31:20;;;;;;;15.33;9.83;;;;;;;22.45;48.03;94946.00;6091483;28;112965;-66
2023/05/24 06:34:26;;;;;;;19.73;10.23;;;;;;;22.52;48.10;94951.69;6091965;28;109387;-71
2023/05/24 06:37:30;;;;;;;19.33;9.83;;;;;;;22.55;48.44;94951.06;6081842;28;109789;-70
2023/05/24 06:40:33;;;;;;;17.37;9.67;;;;;;;22.61;48.57;94949.03;6092636;28;110220;-70
2023/05/24 06:43:36;;;;;;;19.20;10.00;;;;;;;22.62;48.39;94937.28;6093601;28;109555;-67
2023/05/24 06:46:39;;;;;;;18.90;9.77;;;;;;;22.61;48.53;94944.50;6108342;28;109020;-67
2023/05/24 06:49:44;;;;;;;19.03;9.83;;;;;;;22.65;48.23;94942.78;6100644;28;109134;-68
2023/05/24 06:52:47;;;;;;;18.63;10.07;;;;;;;22.75;48.69;94938.25;6110256;28;109437;-67
2023/05/24 06:55:51;;;;;;;19.13;9.97;;;;;;;22.82;48.35;94944.69;6107878;28;109167;-66
2023/05/24 06:58:54;;;;;;;18.93;11.23;;;;;;;22.80;49.16;94938.88;6088698;28;109115;-70
2023/05/24 07:01:57;;;;;;;24.77;10.63;;;;;;;22.86;48.66;94940.31;6102130;28;109077;-73
2023/05/24 07:05:10;;;;;;;23.90;10.80;;;;;;;22.92;48.86;94932.94;6103261;28;110251;-74
2023/05/24 07:08:14;;;;;;;25.50;11.03;;;;;;;22.98;48.77;94937.78;6097394;28;110411;-73
2023/05/24 07:11:17;;;;;;;26.07;11.00;;;;;;;22.99;49.67;94934.00;6097848;28;109370;-71
2023/05/24 07:14:21;;;;;;;20.33;10.17;;;;;;;23.03;49.07;94934.19;6116873;28;109621;-71
2023/05/24 07:17:26;;;;;;;22.13;10.50;;;;;;;22.99;49.40;94930.56;6110009;28;109664;-72
2023/05/24 07:20:30;;;;;;;28.10;10.80;;;;;;;22.96;49.12;94939.19;6103954;28;108879;-72
2023/05/24 07:23:34;;;;;;;25.17;10.80;;;;;;;23.04;48.91;94945.66;6098832;28;109125;-72
2023/05/24 07:26:37;;;;;;;17.03;9.70;;;;;;;23.02;48.94;94940.63;6116896;28;109955;-72
2023/05/24 07:29:40;;;;;;;24.57;9.10;;;;;;;22.98;48.83;94947.66;6110388;28;108898;-71
2023/05/24 07:32:43;;;;;;;21.73;9.50;;;;;;;23.02;48.76;94948.63;6092732;28;112175;-70
2023/05/24 07:35:50;;;;;;;23.60;9.63;;;;;;;23.01;48.75;94942.50;6097339;28;111179;-71
2023/05/24 07:38:54;;;;;;;19.30;9.77;;;;;;;22.92;48.28;94941.72;6120202;28;109109;-70
2023/05/24 07:41:57;;;;;;;36.37;13.07;;;;;;;22.60;48.48;94942.94;6113143;28;109105;-69
2023/05/24 07:45:01;;;;;;;29.40;11.13;;;;;;;22.38;48.05;94940.34;6103815;28;109306;-74
2023/05/24 07:48:04;;;;;;;19.87;10.27;;;;;;;22.53;48.38;94945.25;6113301;28;109457;-74
2023/05/24 07:51:09;;;;;;;22.60;10.17;;;;;;;22.75;48.51;94935.59;6113873;28;109523;-73
2023/05/24 07:54:12;;;;;;;24.90;10.03;;;;;;;22.85;48.07;94935.25;6115103;28;109104;-74
2023/05/24 07:57:15;;;;;;;20.33;10.00;;;;;;;22.79;47.81;94937.31;6103056;28;109196;-73
2023/05/24 08:00:19;;;;;;;31.00;12.13;;;;;;;22.87;47.58;94931.22;6113729;28;109276;-65
2023/05/24 08:03:24;;;;;;;27.63;11.10;;;;;;;23.02;47.82;94937.97;6113409;28;109099;-65
2023/05/24 08:06:29;;;;;;;37.70;11.63;;;;;;;23.06;47.56;94936.22;6098808;28;109063;-64
2023/05/24 08:09:34;;;;;;;29.50;11.43;;;;;;;23.11;47.21;94938.72;6103561;28;112167;-62
2023/05/24 08:12:37;;;;;;;29.37;11.10;;;;;;;23.13;47.27;94936.53;6112859;28;109345;-63
2023/05/24 08:15:41;;;;;;;38.70;11.17;;;;;;;23.16;47.35;94933.22;6114064;28;109117;-62
2023/05/24 08:18:44;;;;;;;25.13;12.00;;;;;;;23.19;46.97;94937.97;6103334;28;110482;-62
2023/05/24 08:21:49;;;;;;;29.90;11.00;;;;;;;23.21;47.05;94930.41;6113102;28;109018;-62
2023/05/24 08:24:52;;;;;;;24.73;10.77;;;;;;;23.24;46.77;94931.66;6112518;28;109160;-63
2023/05/24 08:27:56;;;;;;;21.90;11.40;;;;;;;23.23;47.06;94928.22;6113235;28;109125;-62
2023/05/24 08:30:59;;;;;;;22.23;9.50;;;;;;;23.25;47.03;94927.91;6102392;28;109310;-62
2023/05/24 08:34:02;;;;;;;28.80;10.70;;;;;;;23.27;46.85;94923.81;6112659;28;109139;-62
2023/05/24 08:37:08;;;;;;;23.07;10.40;;;;;;;23.26;46.84;94930.25;6113542;28;109139;-63
2023/05/24 08:40:12;;;;;;;18.90;9.47;;;;;;;23.25;46.43;94927.91;6113579;28;109077;-62
2023/05/24 08:43:15;;;;;;;17.20;9.20;;;;;;;23.28;46.00;94933.38;6103635;28;109270;-62
2023/05/24 08:46:19;;;;;;;17.83;9.43;;;;;;;23.30;46.32;94927.75;6114994;28;109085;-62
2023/05/24 08:49:22;;;;;;;18.00;8.20;;;;;;;23.28;46.14;94920.03;6112851;28;110005;-62
2023/05/24 08:52:28;;;;;;;18.00;8.93;;;;;;;23.30;46.33;94928.53;6113678;28;110104;-66
2023/05/24 08:55:31;;;;;;;16.13;8.80;;;;;;;23.30;45.61;94914.41;6111005;28;109117;-61
2023/05/24 08:58:36;;;;;;;15.63;8.73;;;;;;;23.31;45.56;94923.97;6105707;28;109118;-62
2023/05/24 09:01:41;;;;;;;22.33;9.10;;;;;;;23.32;45.44;94919.44;6112750;28;109481;-62
2023/05/24 09:04:46;;;;;;;12.20;8.30;;;;;;;23.32;45.00;94930.09;6099323;28;109399;-63
2023/05/24 09:07:51;;;;;;;15.43;8.33;;;;;;;23.30;44.81;94923.19;6111877;28;108977;-70
2023/05/24 09:10:55;;;;;;;20.70;8.80;;;;;;;23.30;45.42;94917.88;6113675;28;109156;-70
2023/05/24 09:14:00;;;;;;;59.27;14.37;;;;;;;23.32;46.09;94922.09;6108026;28;109064;-71
2023/05/24 09:17:04;;;;;;;32.20;9.93;;;;;;;23.37;45.95;94925.41;6101313;28;109172;-70
2023/05/24 09:20:09;;;;;;;36.13;13.30;;;;;;;23.36;45.87;94920.38;6112478;28;109425;-71
2023/05/24 09:23:15;;;;;;;43.43;21.40;;;;;;;23.39;46.26;94925.09;6111493;28;110343;-71
2023/05/24 09:26:18;;;;;;;86.93;57.13;;;;;;;23.39;47.17;94925.88;6116203;28;109490;-71
2023/05/24 09:29:23;;;;;;;87.90;65.87;;;;;;;23.39;46.94;94925.09;6109317;28;109010;-65
2023/05/24 09:32:27;;;;;;;110.67;75.07;;;;;;;23.43;48.91;94910.00;6108773;28;109077;-66
2023/05/24 09:35:30;;;;;;;105.20;62.37;;;;;;;23.41;48.04;94918.31;6121763;28;108971;-65
2023/05/24 09:38:35;;;;;;;119.03;64.53;;;;;;;23.37;47.41;94916.63;6119576;28;110578;-63
2023/05/24 09:41:39;;;;;;;95.30;51.80;;;;;;;23.45;46.82;94918.47;6118023;28;109085;-63
2023/05/24 09:44:43;;;;;;;74.47;48.63;;;;;;;23.49;47.15;94906.81;6106072;28;109060;-63
2023/05/24 09:47:47;;;;;;;76.10;50.80;;;;;;;23.54;47.52;94900.56;6129804;28;109038;-62
2023/05/24 09:51:00;;;;;;;74.37;45.10;;;;;;;23.54;47.04;94904.00;6102123;28;109090;-62
2023/05/24 09:54:06;;;;;;;65.97;41.47;;;;;;;23.56;46.80;94903.69;6110930;28;109995;-62
2023/05/24 09:57:10;;;;;;;54.70;36.17;;;;;;;23.56;46.33;94906.34;6116475;28;108898;-62
2023/05/24 10:00:14;;;;;;;46.43;31.50;;;;;;;23.53;45.60;94907.78;6110893;28;109984;-62
2023/05/24 10:03:18;;;;;;;35.43;26.93;;;;;;;23.51;43.97;94901.16;6117553;28;110353;-62
2023/05/24 10:06:22;;;;;;;22.00;16.80;;;;;;;23.46;39.42;94898.69;6116212;28;109371;-63
2023/05/24 10:09:32;;;;;;;9.73;6.57;;;;;;;23.32;37.84;94893.50;6123360;28;109049;-66
2023/05/24 10:12:41;;;;;;;14.70;7.40;;;;;;;23.25;37.48;94891.31;6102370;28;109978;-61
2023/05/24 10:15:45;;;;;;;17.37;8.30;;;;;;;23.34;38.97;94893.97;6114463;28;109768;-62
2023/05/24 10:18:49;;;;;;;8.57;6.33;;;;;;;23.33;39.33;94889.75;6110553;28;111314;-62
2023/05/24 10:21:53;;;;;;;12.83;6.80;;;;;;;23.30;39.68;94891.16;6109529;28;109195;-62
2023/05/24 10:24:59;;;;;;;19.30;8.60;;;;;;;23.32;41.16;94890.06;6105429;28;109092;-62
2023/05/24 10:28:07;;;;;;;21.33;9.63;;;;;;;23.33;41.14;94900.41;6116763;28;108802;-61
2023/05/24 10:31:13;;;;;;;20.20;9.30;;;;;;;23.32;41.48;94892.72;6114753;28;111294;-62
2023/05/24 10:34:17;;;;;;;16.23;7.70;;;;;;;23.34;41.67;94885.97;6113487;28;109397;-64
2023/05/24 10:37:21;;;;;;;13.90;7.87;;;;;;;23.32;41.89;94882.03;6110314;28;109497;-63
2023/05/24 10:40:26;;;;;;;33.10;11.87;;;;;;;23.20;41.28;94878.13;6115048;28;109082;-62
2023/05/24 10:43:29;;;;;;;22.83;9.87;;;;;;;23.14;41.24;94871.38;6109154;28;109386;-62
2023/05/24 10:46:33;;;;;;;23.17;10.47;;;;;;;23.18;41.65;94871.50;6098442;28;109926;-64
2023/05/24 10:49:37;;;;;;;18.60;9.83;;;;;;;23.16;41.27;94865.72;6108417;28;111205;-62
2023/05/24 10:52:40;;;;;;;12.57;8.20;;;;;;;23.15;40.13;94866.81;6109575;28;109119;-62
2023/05/24 10:55:58;;;;;;;17.73;8.30;;;;;;;23.14;39.56;94866.03;6108257;28;108868;-62
2023/05/24 10:59:05;;;;;;;15.53;7.80;;;;;;;23.12;39.90;94862.09;6101704;28;110964;-62
2023/05/24 11:02:12;;;;;;;8.50;7.67;;;;;;;23.11;39.93;94858.66;6121338;28;109142;-61
2023/05/24 11:05:16;;;;;;;11.20;6.57;;;;;;;23.10;40.74;94854.41;6118355;28;108995;-61
2023/05/24 11:08:30;;;;;;;12.17;7.53;;;;;;;23.08;40.23;94856.63;6105020;28;109295;-63
2023/05/24 11:11:38;;;;;;;12.30;7.40;;;;;;;23.06;40.58;94847.38;6113636;28;109253;-62
2023/05/24 11:14:41;;;;;;;12.27;8.07;;;;;;;23.06;41.22;94855.38;6113586;28;109170;-62
2023/05/24 11:18:14;;;;;;;17.47;9.23;;;;;;;23.06;41.51;94853.50;6119193;28;108804;-62
2023/05/24 11:21:17;;;;;;;18.53;10.47;;;;;;;23.05;41.63;94838.59;6109060;28;109302;-62
2023/05/24 11:24:22;;;;;;;64.40;53.43;;;;;;;23.01;41.67;94840.28;6126107;28;110295;-63
2023/05/24 11:27:26;;;;;;;32.87;27.43;;;;;;;23.01;42.09;94845.63;6126901;28;109465;-61
2023/05/24 11:30:31;;;;;;;44.60;35.37;;;;;;;23.01;42.04;94840.28;6121730;28;109149;-62
2023/05/24 11:33:34;;;;;;;44.73;39.70;;;;;;;23.00;42.38;94839.50;6103775;28;108940;-61
2023/05/24 11:36:38;;;;;;;52.27;41.00;;;;;;;23.00;42.46;94842.19;6124267;28;109250;-61
2023/05/24 11:39:42;;;;;;;48.07;40.80;;;;;;;22.99;42.42;94837.16;6121256;28;110067;-63
2023/05/24 11:42:46;;;;;;;47.03;36.43;;;;;;;22.99;42.39;94840.59;6118801;28;109450;-67
2023/05/24 11:45:51;;;;;;;38.67;33.80;;;;;;;23.01;41.87;94834.94;6131461;28;110146;-67
2023/05/24 11:48:57;;;;;;;38.23;31.57;;;;;;;23.01;41.51;94826.94;6125235;28;108981;-67
2023/05/24 11:52:01;;;;;;;37.23;32.50;;;;;;;22.99;42.14;94821.16;6120090;28;109105;-65
2023/05/24 11:55:05;;;;;;;48.43;31.07;;;;;;;22.95;41.89;94823.66;6107965;28;109558;-66
2023/05/24 11:58:19;;;;;;;14.90;12.80;;;;;;;22.91;37.66;94816.63;6113750;28;109117;-67
2023/05/24 12:01:24;;;;;;;13.13;11.80;;;;;;;22.87;37.91;94811.13;6113003;28;109650;-67
2023/05/24 12:04:28;;;;;;;15.30;9.50;;;;;;;22.86;37.12;94812.25;6111565;28;109397;-71
2023/05/24 12:07:31;;;;;;;5.60;4.90;;;;;;;22.96;36.62;94808.44;6102770;28;109798;-71
2023/05/24 12:10:35;;;;;;;28.80;16.77;;;;;;;22.95;37.54;94810.31;6113527;28;109117;-72
2023/05/24 12:13:40;;;;;;;60.23;30.10;;;;;;;22.79;39.57;94808.47;6102218;28;109074;-71
2023/05/24 12:16:44;;;;;;;44.93;20.10;;;;;;;22.65;39.36;94804.06;6107469;28;109114;-70
2023/05/24 12:19:49;;;;;;;23.33;10.53;;;;;;;22.77;37.60;94797.31;6107558;28;111339;-66
2023/05/24 12:22:53;;;;;;;15.93;8.43;;;;;;;22.93;37.09;94803.75;6111156;28;108952;-67
2023/05/24 12:26:00;;;;;;;16.80;8.50;;;;;;;23.00;37.57;94796.81;6113105;28;112238;-67
2023/05/24 12:29:05;;;;;;;17.10;7.00;;;;;;;23.04;37.35;94790.84;6101955;28;109163;-66
2023/05/24 12:32:11;;;;;;;49.90;15.73;;;;;;;22.76;41.21;94791.22;6113087;28;108951;-67
2023/05/24 12:35:18;;;;;;;19.73;11.87;;;;;;;22.88;40.15;94790.56;6101047;28;109401;-64
2023/05/24 12:38:24;;;;;;;27.50;12.60;;;;;;;22.99;40.89;94794.47;6096613;28;109069;-64
2023/05/24 12:41:31;;;;;;;32.83;12.10;;;;;;;23.04;40.50;94788.19;6099395;28;109184;-65
2023/05/24 12:44:38;;;;;;;18.43;10.90;;;;;;;23.06;40.50;94784.09;6110618;28;110687;-65
2023/05/24 12:47:41;;;;;;;21.30;11.40;;;;;;;23.06;41.23;94780.66;6088817;28;109375;-65
2023/05/24 12:50:45;;;;;;;31.20;18.97;;;;;;;23.05;41.43;94777.19;6098798;28;108833;-61
2023/05/24 12:53:48;;;;;;;28.97;21.77;;;;;;;23.06;41.46;94778.75;6100523;28;109129;-61
2023/05/24 12:56:52;;;;;;;25.53;21.60;;;;;;;23.10;41.40;94779.69;6111944;28;109109;-60
2023/05/24 12:59:59;;;;;;;26.67;21.80;;;;;;;23.09;41.92;94772.00;6112966;28;110053;-60
2023/05/24 13:03:03;;;;;;;24.00;20.07;;;;;;;23.09;41.73;94769.31;6101303;28;108707;-61
2023/05/24 13:06:06;;;;;;;20.57;18.40;;;;;;;23.09;41.89;94774.66;6112522;28;108853;-61
2023/05/24 13:09:10;;;;;;;20.77;18.00;;;;;;;23.09;41.79;94772.78;6112328;28;109564;-61
2023/05/24 13:12:13;;;;;;;19.57;17.23;;;;;;;23.11;41.33;94764.44;6112466;28;110445;-61
2023/05/24 13:15:21;;;;;;;17.57;15.07;;;;;;;23.08;41.48;94773.88;6100690;28;109760;-62
2023/05/24 13:18:26;;;;;;;15.87;14.17;;;;;;;23.09;41.41;94764.00;6113271;28;110163;-60
2023/05/24 13:21:29;;;;;;;16.33;12.93;;;;;;;23.09;41.28;94761.31;6111364;28;110519;-61
2023/05/24 13:24:32;;;;;;;16.17;12.30;;;;;;;23.09;41.29;94753.31;6107768;28;110070;-60
2023/05/24 13:27:35;;;;;;;11.87;10.77;;;;;;;23.10;41.29;94753.00;6092719;28;109116;-59
2023/05/24 13:30:40;;;;;;;11.80;10.60;;;;;;;23.08;41.29;94757.88;6107114;28;109225;-62
2023/05/24 13:33:43;;;;;;;10.80;9.80;;;;;;;23.10;40.86;94753.00;6108694;28;110330;-62
2023/05/24 13:36:47;;;;;;;10.97;9.83;;;;;;;23.06;41.23;94746.72;6102654;28;109169;-64
2023/05/24 13:39:50;;;;;;;19.87;10.40;;;;;;;23.07;41.55;94758.97;6105654;28;109092;-66
2023/05/24 13:42:56;;;;;;;9.90;8.23;;;;;;;23.05;40.84;94757.72;6105946;28;109253;-66
2023/05/24 13:46:01;;;;;;;14.97;8.17;;;;;;;23.06;40.66;94754.75;6111097;28;110130;-66
2023/05/24 13:49:04;;;;;;;7.33;6.60;;;;;;;23.07;40.99;94756.31;6101491;28;109059;-64
2023/05/24 13:52:07;;;;;;;15.20;7.70;;;;;;;23.03;41.07;94752.72;6110790;28;109489;-64
2023/05/24 13:55:11;;;;;;;17.30;8.10;;;;;;;23.13;41.57;94755.03;6109826;28;110041;-65
2023/05/24 13:58:15;;;;;;;24.73;9.43;;;;;;;23.13;42.21;94755.03;6111572;28;109140;-65
2023/05/24 14:01:19;;;;;;;22.20;9.57;;;;;;;23.14;42.59;94767.25;6101439;28;109448;-73
2023/05/24 14:04:23;;;;;;;22.20;8.90;;;;;;;23.12;43.14;94766.03;6111089;28;109290;-73
2023/05/24 14:07:26;;;;;;;28.83;9.13;;;;;;;23.16;43.04;94772.28;6107591;28;108945;-73